createdAt,value
2017-09-24T00:00:04.196Z,83.90
2017-09-24T00:02:33.223Z,83.90
2017-09-24T00:05:01.353Z,83.90
2017-09-24T00:07:30.346Z,83.90
2017-09-24T00:09:58.537Z,83.90
2017-09-24T00:12:26.681Z,83.90
2017-09-24T00:14:55.637Z,83.90
2017-09-24T00:17:23.778Z,84.00
2017-09-24T00:19:51.946Z,84.10
2017-09-24T00:22:20.104Z,84.10
2017-09-24T00:24:48.379Z,84.10
2017-09-24T00:27:16.517Z,84.10
2017-09-24T00:29:45.428Z,84.10
2017-09-24T00:32:13.627Z,84.00
2017-09-24T00:34:41.788Z,84.10
2017-09-24T00:37:09.966Z,84.10
2017-09-24T00:39:38.101Z,84.10
2017-09-24T00:42:06.246Z,84.20
2017-09-24T00:44:34.417Z,84.20
2017-09-24T00:47:02.571Z,84.20
2017-09-24T00:49:30.833Z,84.20
2017-09-24T00:51:59.000Z,84.20
2017-09-24T00:54:27.199Z,84.30
2017-09-24T00:56:55.362Z,84.30
2017-09-24T00:59:23.519Z,84.40
2017-09-24T01:01:51.698Z,84.50
2017-09-24T01:04:19.852Z,84.50
2017-09-24T01:06:48.001Z,84.40
2017-09-24T01:09:16.169Z,84.40
2017-09-24T01:11:44.320Z,84.30
2017-09-24T01:14:13.270Z,84.00
2017-09-24T01:16:41.439Z,83.90
2017-09-24T01:19:09.623Z,83.80
2017-09-24T01:21:37.770Z,83.70
2017-09-24T01:24:05.931Z,83.60
2017-09-24T01:26:34.155Z,84.20
2017-09-24T01:29:02.317Z,83.60
2017-09-24T01:31:30.606Z,83.60
2017-09-24T01:33:58.757Z,83.60
2017-09-24T01:36:26.921Z,83.60
2017-09-24T01:38:55.127Z,83.70
2017-09-24T01:41:23.322Z,83.60
2017-09-24T01:43:52.239Z,83.70
2017-09-24T01:46:20.627Z,83.70
2017-09-24T01:48:48.791Z,83.60
2017-09-24T01:51:16.965Z,83.70
2017-09-24T01:53:45.236Z,83.90
2017-09-24T01:56:13.439Z,83.90
2017-09-24T01:58:41.623Z,83.90
2017-09-24T02:01:09.866Z,83.80
2017-09-24T02:03:38.028Z,83.80
2017-09-24T02:06:06.216Z,83.80
2017-09-24T02:08:34.356Z,83.90
2017-09-24T02:11:02.514Z,83.90
2017-09-24T02:13:30.690Z,83.90
2017-09-24T02:15:59.608Z,83.80
2017-09-24T02:18:27.791Z,83.80
2017-09-24T02:20:55.929Z,83.80
2017-09-24T02:23:24.073Z,83.80
2017-09-24T02:25:53.122Z,83.90
2017-09-24T02:28:22.393Z,83.90
2017-09-24T02:30:50.542Z,84.10
2017-09-24T02:33:19.477Z,84.20
2017-09-24T02:35:47.614Z,84.20
2017-09-24T02:38:15.899Z,84.30
2017-09-24T02:40:44.049Z,84.40
2017-09-24T02:43:12.964Z,84.50
2017-09-24T02:45:41.183Z,84.40
2017-09-24T02:48:09.325Z,84.40
2017-09-24T02:50:37.542Z,84.40
2017-09-24T02:53:05.690Z,84.40
2017-09-24T02:55:34.045Z,84.40
2017-09-24T02:58:02.189Z,84.40
2017-09-24T03:00:30.339Z,84.60
2017-09-24T03:02:59.282Z,84.60
2017-09-24T03:05:27.427Z,84.60
2017-09-24T03:07:55.698Z,84.60
2017-09-24T03:10:23.910Z,84.60
2017-09-24T03:12:52.041Z,84.50
2017-09-24T03:15:21.241Z,84.60
2017-09-24T03:17:49.391Z,84.60
2017-09-24T03:20:18.294Z,84.50
2017-09-24T03:22:47.240Z,84.40
2017-09-24T03:25:15.394Z,84.40
2017-09-24T03:27:43.538Z,84.30
2017-09-24T03:30:11.789Z,84.30
2017-09-24T03:32:40.715Z,84.30
2017-09-24T03:35:08.860Z,84.30
2017-09-24T03:37:37.787Z,84.20
2017-09-24T03:40:05.936Z,84.20
2017-09-24T03:42:34.093Z,84.10
2017-09-24T03:45:03.002Z,84.00
2017-09-24T03:47:31.166Z,84.00
2017-09-24T03:49:59.322Z,84.00
2017-09-24T03:52:28.270Z,83.90
2017-09-24T03:54:56.499Z,83.90
2017-09-24T03:57:24.646Z,83.90
2017-09-24T03:59:52.807Z,83.90
2017-09-24T04:02:20.946Z,84.00
2017-09-24T04:04:49.116Z,83.90
2017-09-24T04:07:17.262Z,83.80
2017-09-24T04:09:45.417Z,83.70
2017-09-24T04:12:14.355Z,83.60
2017-09-24T04:14:42.497Z,83.60
2017-09-24T04:17:10.666Z,83.60
2017-09-24T04:19:38.812Z,83.50
2017-09-24T04:22:07.764Z,83.70
2017-09-24T04:24:35.914Z,83.60
2017-09-24T04:27:04.067Z,83.80
2017-09-24T04:29:32.428Z,83.90
2017-09-24T04:32:01.335Z,84.00
2017-09-24T04:34:29.483Z,83.90
2017-09-24T04:36:58.520Z,84.00
2017-09-24T04:39:26.676Z,84.00
2017-09-24T04:41:54.845Z,84.00
2017-09-24T04:44:22.999Z,83.90
2017-09-24T04:46:52.144Z,83.90
2017-09-24T04:49:20.299Z,83.90
2017-09-24T04:51:48.433Z,84.00
2017-09-24T04:54:17.381Z,83.90
2017-09-24T04:56:45.535Z,83.90
2017-09-24T04:59:13.679Z,83.80
2017-09-24T05:01:42.605Z,83.60
2017-09-24T05:04:10.743Z,83.60
2017-09-24T05:06:38.915Z,83.70
2017-09-24T05:09:07.054Z,83.60
2017-09-24T05:11:35.316Z,83.60
2017-09-24T05:14:03.467Z,83.60
2017-09-24T05:16:31.615Z,83.60
2017-09-24T05:18:59.785Z,83.70
2017-09-24T05:21:27.920Z,83.60
2017-09-24T05:23:56.966Z,83.70
2017-09-24T05:26:25.119Z,83.80
2017-09-24T05:28:53.270Z,83.80
2017-09-24T05:31:22.310Z,83.60
2017-09-24T05:33:50.450Z,83.60
2017-09-24T05:36:18.612Z,83.60
2017-09-24T05:38:47.545Z,83.60
2017-09-24T05:41:15.681Z,83.60
2017-09-24T05:43:43.960Z,83.70
2017-09-24T05:46:12.115Z,83.70
2017-09-24T05:48:41.675Z,83.90
2017-09-24T05:51:09.859Z,83.90
2017-09-24T05:53:37.998Z,83.90
2017-09-24T05:56:06.137Z,83.80
2017-09-24T05:58:35.081Z,83.80
2017-09-24T06:01:03.229Z,83.80
2017-09-24T06:03:31.401Z,84.00
2017-09-24T06:05:59.549Z,84.10
2017-09-24T06:08:27.697Z,84.10
2017-09-24T06:10:55.863Z,83.90
2017-09-24T06:13:23.997Z,83.80
2017-09-24T06:15:52.138Z,83.80
2017-09-24T06:18:20.367Z,83.80
2017-09-24T06:20:48.519Z,83.70
2017-09-24T06:23:16.790Z,83.90
2017-09-24T06:25:44.922Z,83.90
2017-09-24T06:28:13.831Z,83.90
2017-09-24T06:30:42.152Z,83.90
2017-09-24T06:33:11.097Z,84.10
2017-09-24T06:35:39.241Z,84.00
2017-09-24T06:38:08.284Z,84.30
2017-09-24T06:40:36.427Z,84.30
2017-09-24T06:43:04.576Z,84.50
2017-09-24T06:45:33.704Z,83.70
2017-09-24T06:48:01.845Z,83.70
2017-09-24T06:50:30.754Z,82.70
2017-09-24T06:52:59.042Z,82.70
2017-09-24T06:55:27.203Z,82.50
2017-09-24T06:57:55.352Z,82.60
2017-09-24T07:00:24.310Z,81.20
2017-09-24T07:02:52.458Z,81.20
2017-09-24T07:05:20.607Z,80.70
2017-09-24T07:07:48.902Z,80.40
2017-09-24T07:10:17.058Z,80.00
2017-09-24T07:12:45.201Z,80.10
2017-09-24T07:15:14.152Z,79.50
2017-09-24T07:17:43.053Z,78.80
2017-09-24T07:20:11.257Z,78.80
2017-09-24T07:22:40.162Z,78.20
2017-09-24T07:25:08.320Z,77.50
2017-09-24T07:27:37.413Z,76.10
2017-09-24T07:30:05.568Z,75.20
2017-09-24T07:32:33.747Z,73.30
2017-09-24T07:35:02.654Z,72.30
2017-09-24T07:37:30.807Z,72.30
2017-09-24T07:39:59.965Z,71.90
2017-09-24T07:42:28.150Z,71.90
2017-09-24T07:44:56.506Z,71.90
2017-09-24T07:47:24.675Z,71.10
2017-09-24T07:49:52.821Z,70.40
2017-09-24T07:52:21.226Z,70.30
2017-09-24T07:54:49.391Z,69.40
2017-09-24T07:57:17.546Z,69.50
2017-09-24T07:59:45.784Z,68.60
2017-09-24T08:02:14.715Z,68.20
2017-09-24T08:04:42.903Z,68.10
2017-09-24T08:07:11.047Z,67.20
2017-09-24T08:09:39.198Z,65.30
2017-09-24T08:12:08.150Z,65.20
2017-09-24T08:14:37.085Z,65.60
2017-09-24T08:17:06.006Z,65.60
2017-09-24T08:19:34.481Z,65.60
2017-09-24T08:22:02.622Z,64.60
2017-09-24T08:24:30.919Z,64.30
2017-09-24T08:26:59.076Z,64.20
2017-09-24T08:29:28.009Z,63.40
2017-09-24T08:31:56.190Z,63.30
2017-09-24T08:34:24.347Z,61.80
2017-09-24T08:36:52.533Z,62.80
2017-09-24T08:39:20.703Z,64.10
2017-09-24T08:41:48.847Z,63.00
2017-09-24T08:44:17.024Z,63.00
2017-09-24T08:46:45.194Z,62.80
2017-09-24T08:49:13.368Z,63.40
2017-09-24T08:51:41.512Z,63.10
2017-09-24T08:54:09.699Z,62.00
2017-09-24T08:56:37.836Z,61.80
2017-09-24T08:59:06.124Z,61.10
2017-09-24T09:01:35.021Z,60.40
2017-09-24T09:04:03.921Z,60.40
2017-09-24T09:06:32.109Z,60.40
2017-09-24T09:09:00.249Z,59.90
2017-09-24T09:11:29.171Z,60.40
2017-09-24T09:13:57.342Z,60.40
2017-09-24T09:16:25.486Z,59.60
2017-09-24T09:18:54.423Z,58.10
2017-09-24T09:24:25.868Z,57.50
2017-09-24T09:26:54.023Z,55.40
2017-09-24T09:29:22.169Z,56.80
2017-09-24T09:31:51.109Z,56.30
2017-09-24T09:34:40.030Z,56.20
2017-09-24T09:37:08.999Z,56.20
2017-09-24T09:39:37.143Z,56.20
2017-09-24T09:42:05.292Z,55.50
2017-09-24T09:44:51.707Z,55.80
2017-09-24T09:47:27.479Z,54.90
2017-09-24T09:49:55.632Z,55.40
2017-09-24T09:52:23.787Z,55.70
2017-09-24T09:54:51.983Z,55.30
2017-09-24T09:57:20.152Z,54.30
2017-09-24T09:59:48.330Z,54.40
2017-09-24T10:02:16.496Z,54.60
2017-09-24T10:04:44.682Z,55.60
2017-09-24T10:10:38.422Z,59.10
2017-09-24T10:13:06.705Z,58.40
2017-09-24T10:15:34.865Z,59.20
2017-09-24T10:18:03.007Z,59.90
2017-09-24T10:20:31.282Z,59.70
2017-09-24T10:23:00.223Z,60.00
2017-09-24T10:25:28.380Z,60.00
2017-09-24T10:27:56.774Z,61.10
2017-09-24T10:30:42.915Z,62.30
2017-09-24T10:33:11.870Z,59.60
2017-09-24T10:35:40.087Z,59.50
2017-09-24T10:38:09.006Z,58.60
2017-09-24T10:40:37.184Z,58.60
2017-09-24T10:43:05.980Z,58.90
2017-09-24T10:45:34.126Z,58.20
2017-09-24T10:48:02.287Z,58.60
2017-09-24T10:50:31.451Z,58.60
2017-09-24T10:52:59.603Z,58.60
2017-09-24T10:55:27.767Z,58.20
2017-09-24T10:57:55.943Z,58.20
2017-09-24T11:00:24.087Z,57.90
2017-09-24T11:02:52.247Z,59.00
2017-09-24T11:05:21.177Z,60.80
2017-09-24T11:07:49.305Z,61.20
2017-09-24T11:10:17.454Z,59.80
2017-09-24T11:12:46.515Z,58.30
2017-09-24T11:15:14.650Z,58.30
2017-09-24T11:17:42.792Z,58.80
2017-09-24T11:20:10.979Z,59.00
2017-09-24T11:22:39.126Z,56.40
2017-09-24T11:25:07.306Z,56.50
2017-09-24T11:27:35.500Z,56.30
2017-09-24T11:30:03.664Z,57.00
2017-09-24T11:32:32.598Z,57.30
2017-09-24T11:35:00.899Z,56.60
2017-09-24T11:37:29.031Z,57.50
2017-09-24T11:39:57.175Z,58.30
2017-09-24T11:42:26.128Z,58.10
2017-09-24T11:44:54.258Z,58.10
2017-09-24T11:47:22.394Z,58.30
2017-09-24T11:49:50.663Z,57.40
2017-09-24T11:52:18.819Z,58.30
2017-09-24T11:54:46.979Z,58.30
2017-09-24T11:57:15.352Z,56.00
2017-09-24T11:59:43.499Z,56.40
2017-09-24T12:02:11.652Z,56.90
2017-09-24T12:04:40.598Z,56.90
2017-09-24T12:07:08.756Z,56.90
2017-09-24T12:09:36.913Z,57.50
2017-09-24T12:12:05.083Z,57.40
2017-09-24T12:14:33.217Z,57.00
2017-09-24T12:17:02.160Z,56.20
2017-09-24T12:19:30.456Z,56.20
2017-09-24T12:21:58.607Z,55.60
2017-09-24T12:24:26.758Z,55.70
2017-09-24T12:26:54.940Z,54.90
2017-09-24T12:29:23.100Z,56.20
2017-09-24T12:31:51.296Z,57.70
2017-09-24T12:34:19.462Z,58.60
2017-09-24T12:36:47.598Z,58.70
2017-09-24T12:39:16.526Z,58.40
2017-09-24T12:41:44.675Z,58.40
2017-09-24T12:44:12.972Z,58.50
2017-09-24T12:46:41.132Z,58.30
2017-09-24T12:49:09.277Z,58.80
2017-09-24T12:51:38.207Z,59.70
2017-09-24T12:54:06.343Z,59.50
2017-09-24T12:56:34.503Z,59.80
2017-09-24T12:59:03.418Z,58.60
2017-09-24T13:01:31.603Z,58.50
2017-09-24T13:03:59.758Z,59.30
2017-09-24T13:06:27.937Z,58.90
2017-09-24T13:08:56.088Z,59.10
2017-09-24T13:11:24.245Z,58.50
2017-09-24T13:13:53.262Z,57.40
2017-09-24T13:16:21.410Z,57.40
2017-09-24T13:18:50.312Z,56.50
2017-09-24T13:21:19.260Z,55.90
2017-09-24T13:23:47.405Z,56.00
2017-09-24T13:26:15.577Z,56.60
2017-09-24T13:28:43.879Z,57.00
2017-09-24T13:31:12.011Z,57.60
2017-09-24T13:33:40.138Z,59.00
2017-09-24T13:36:08.315Z,59.50
2017-09-24T13:38:36.468Z,58.80
2017-09-24T13:41:04.609Z,58.10
2017-09-24T13:43:32.770Z,59.20
2017-09-24T13:46:00.914Z,60.50
2017-09-24T13:48:29.830Z,60.40
2017-09-24T13:50:58.016Z,60.40
2017-09-24T13:53:26.172Z,59.00
2017-09-24T13:55:54.457Z,58.60
2017-09-24T13:58:22.582Z,60.20
2017-09-24T14:00:51.486Z,62.70
2017-09-24T14:03:19.663Z,62.60
2017-09-24T14:05:47.809Z,62.70
2017-09-24T14:08:15.966Z,61.10
2017-09-24T14:10:44.130Z,60.70
2017-09-24T14:13:12.277Z,60.00
2017-09-24T14:15:40.434Z,61.30
2017-09-24T14:18:08.579Z,60.80
2017-09-24T14:20:37.625Z,61.20
2017-09-24T14:23:05.770Z,61.20
2017-09-24T14:25:33.920Z,61.40
2017-09-24T14:28:03.121Z,61.40
2017-09-24T14:30:32.021Z,62.80
2017-09-24T14:33:00.175Z,62.80
2017-09-24T14:35:29.111Z,65.60
2017-09-24T14:37:57.253Z,64.90
2017-09-24T14:40:25.413Z,65.50
2017-09-24T14:42:54.348Z,66.50
2017-09-24T14:45:22.506Z,66.50
2017-09-24T14:47:50.697Z,67.00
2017-09-24T14:50:18.830Z,67.20
2017-09-24T14:52:46.987Z,67.30
2017-09-24T14:55:15.151Z,67.90
2017-09-24T14:57:44.188Z,68.70
2017-09-24T15:00:12.337Z,68.50
2017-09-24T15:02:40.479Z,68.40
2017-09-24T15:05:09.518Z,68.70
2017-09-24T15:07:37.669Z,68.70
2017-09-24T15:10:05.827Z,68.60
2017-09-24T15:12:35.677Z,68.50
2017-09-24T15:15:03.828Z,68.50
2017-09-24T15:17:32.103Z,69.10
2017-09-24T15:20:00.270Z,69.20
2017-09-24T15:22:28.427Z,69.70
2017-09-24T15:24:57.451Z,70.10
2017-09-24T15:27:25.730Z,70.10
2017-09-24T15:29:53.923Z,70.10
2017-09-24T15:32:22.068Z,70.90
2017-09-24T15:34:50.256Z,70.80
2017-09-24T15:37:18.399Z,71.60
2017-09-24T15:39:46.559Z,71.60
2017-09-24T15:42:14.764Z,71.50
2017-09-24T15:44:42.937Z,72.00
2017-09-24T15:47:11.221Z,71.90
2017-09-24T15:49:39.384Z,71.80
2017-09-24T15:52:07.548Z,72.40
2017-09-24T15:54:35.744Z,72.10
2017-09-24T15:57:03.897Z,72.50
2017-09-24T15:59:32.038Z,72.90
2017-09-24T16:02:01.089Z,74.20
2017-09-24T16:04:29.233Z,74.20
2017-09-24T16:06:57.422Z,74.50
2017-09-24T16:09:25.626Z,74.70
2017-09-24T16:11:53.796Z,74.90
2017-09-24T16:14:21.974Z,76.00
2017-09-24T16:16:51.275Z,77.50
2017-09-24T16:19:20.347Z,77.90
2017-09-24T16:21:48.493Z,77.90
2017-09-24T16:24:16.639Z,78.10
2017-09-24T16:26:44.971Z,78.60
2017-09-24T16:29:13.136Z,79.90
2017-09-24T16:31:41.294Z,80.00
2017-09-24T16:34:09.797Z,80.10
2017-09-24T16:36:38.862Z,81.20
2017-09-24T16:39:07.275Z,81.20
2017-09-24T16:41:36.198Z,82.20
2017-09-24T16:44:04.347Z,82.30
2017-09-24T16:46:33.427Z,83.30
2017-09-24T16:49:01.859Z,83.20
2017-09-24T16:51:30.016Z,83.20
2017-09-24T16:53:58.330Z,83.40
2017-09-24T16:56:26.525Z,83.50
2017-09-24T16:58:54.724Z,83.60
2017-09-24T17:01:23.658Z,84.20
2017-09-24T17:03:51.846Z,84.20
2017-09-24T17:06:20.225Z,84.30
2017-09-24T17:08:48.387Z,84.70
2017-09-24T17:11:16.753Z,85.20
2017-09-24T17:13:44.987Z,85.20
2017-09-24T17:16:13.130Z,85.30
2017-09-24T17:18:41.363Z,85.30
2017-09-24T17:21:09.745Z,85.40
2017-09-24T17:23:38.234Z,85.50
2017-09-24T17:26:06.544Z,85.60
2017-09-24T17:28:35.570Z,85.90
2017-09-24T17:31:04.292Z,85.90
2017-09-24T17:33:33.626Z,86.10
2017-09-24T17:36:02.561Z,86.10
2017-09-24T17:38:32.049Z,86.20
2017-09-24T17:41:01.211Z,86.20
2017-09-24T17:43:29.931Z,86.30
2017-09-24T17:45:58.895Z,86.50
2017-09-24T17:48:28.333Z,86.40
2017-09-24T17:50:57.997Z,86.40
2017-09-24T17:53:27.266Z,86.50
2017-09-24T17:55:56.140Z,86.50
2017-09-24T17:58:26.451Z,86.50
2017-09-24T18:00:55.892Z,86.50
2017-09-24T18:03:25.107Z,86.70
2017-09-24T18:05:54.496Z,86.60
2017-09-24T18:08:23.951Z,86.50
2017-09-24T18:10:53.281Z,85.80
2017-09-24T18:13:22.564Z,86.30
2017-09-24T18:15:52.162Z,85.60
2017-09-24T18:18:21.515Z,84.40
2017-09-24T18:20:50.964Z,81.30
2017-09-24T18:23:21.377Z,81.00
2017-09-24T18:25:50.735Z,81.60
2017-09-24T18:28:20.584Z,82.10
2017-09-24T18:30:51.542Z,82.60
2017-09-24T18:33:21.247Z,82.10
2017-09-24T18:35:50.760Z,82.30
2017-09-24T18:38:20.667Z,81.80
2017-09-24T18:40:50.269Z,79.60
2017-09-24T18:43:19.895Z,79.50
2017-09-24T18:45:49.182Z,80.90
2017-09-24T18:48:18.596Z,79.80
2017-09-24T18:50:48.064Z,80.40
2017-09-24T18:53:17.422Z,80.20
2017-09-24T18:55:47.742Z,80.60
2017-09-24T18:58:17.295Z,81.00
2017-09-24T19:00:47.504Z,81.30
2017-09-24T19:03:17.248Z,81.50
2017-09-24T19:05:46.789Z,82.10
2017-09-24T19:08:16.905Z,83.10
2017-09-24T19:10:47.158Z,83.40
2017-09-24T19:13:16.528Z,83.40
2017-09-24T19:15:45.897Z,83.60
2017-09-24T19:18:15.342Z,83.80
2017-09-24T19:20:45.414Z,84.10
2017-09-24T19:23:14.974Z,84.10
2017-09-24T19:25:44.276Z,84.10
2017-09-24T19:28:14.479Z,84.40
2017-09-24T19:30:44.622Z,84.50
2017-09-24T19:33:14.085Z,84.50
2017-09-24T19:35:44.070Z,84.60
2017-09-24T19:38:13.653Z,84.80
2017-09-24T19:40:43.011Z,84.70
2017-09-24T19:43:12.337Z,84.80
2017-09-24T19:45:42.051Z,84.90
2017-09-24T19:48:11.398Z,84.80
2017-09-24T19:50:41.882Z,84.80
2017-09-24T19:53:11.482Z,84.80
2017-09-24T19:55:42.693Z,84.90
2017-09-24T19:58:12.023Z,85.00
2017-09-24T20:00:41.479Z,85.20
2017-09-24T20:03:10.930Z,85.10
2017-09-24T20:05:41.020Z,85.20
2017-09-24T20:08:11.371Z,85.40
2017-09-24T20:10:40.875Z,85.30
2017-09-24T20:13:10.131Z,85.60
2017-09-24T20:15:39.611Z,85.70
2017-09-24T20:18:09.700Z,86.50
2017-09-24T20:20:39.204Z,85.80
2017-09-24T20:23:08.608Z,86.50
2017-09-24T20:25:38.023Z,85.90
2017-09-24T20:28:07.411Z,85.60
2017-09-24T20:30:37.476Z,85.90
2017-09-24T20:33:07.652Z,85.90
2017-09-24T20:35:36.828Z,86.00
2017-09-24T20:38:06.644Z,86.10
2017-09-24T20:40:35.525Z,86.10
2017-09-24T20:43:04.469Z,86.80
2017-09-24T20:45:33.201Z,86.10
2017-09-24T20:48:01.425Z,86.70
2017-09-24T20:50:30.439Z,86.10
2017-09-24T20:52:58.604Z,86.10
2017-09-24T20:55:27.518Z,85.90
2017-09-24T20:57:55.749Z,85.90
2017-09-24T21:00:23.911Z,86.00
2017-09-24T21:02:52.083Z,86.10
2017-09-24T21:05:20.268Z,86.20
2017-09-24T21:07:49.184Z,86.10
2017-09-24T21:10:17.326Z,86.10
2017-09-24T21:12:45.502Z,86.10
2017-09-24T21:15:13.655Z,86.00
2017-09-24T21:17:41.827Z,86.00
2017-09-24T21:20:09.979Z,85.90
2017-09-24T21:22:38.126Z,85.90
2017-09-24T21:25:06.317Z,86.00
2017-09-24T21:27:34.481Z,86.00
2017-09-24T21:30:02.633Z,86.00
2017-09-24T21:32:30.825Z,85.90
2017-09-24T21:34:58.965Z,85.80
2017-09-24T21:37:27.886Z,85.80
2017-09-24T21:39:56.082Z,85.80
2017-09-24T21:42:24.230Z,86.50
2017-09-24T21:44:52.373Z,85.80
2017-09-24T21:47:21.301Z,85.60
2017-09-24T21:49:49.451Z,85.60
2017-09-24T21:52:17.752Z,85.60
2017-09-24T21:54:45.918Z,85.60
2017-09-24T21:57:14.063Z,85.50
2017-09-24T21:59:42.271Z,85.50
2017-09-24T22:02:10.439Z,85.60
2017-09-24T22:04:38.581Z,85.60
2017-09-24T22:07:06.875Z,85.50
2017-09-24T22:09:35.023Z,85.60
2017-09-24T22:12:03.175Z,85.60
2017-09-24T22:14:32.098Z,85.60
2017-09-24T22:17:00.245Z,85.60
2017-09-24T22:19:29.181Z,85.60
2017-09-24T22:21:57.318Z,85.60
2017-09-24T22:24:25.595Z,85.60
2017-09-24T22:26:53.732Z,85.60
2017-09-24T22:29:21.864Z,85.50
2017-09-24T22:31:50.025Z,85.50
2017-09-24T22:34:18.158Z,85.50
2017-09-24T22:36:47.104Z,85.60
2017-09-24T22:39:15.888Z,85.60
2017-09-24T22:41:44.044Z,85.60
2017-09-24T22:44:12.190Z,85.40
2017-09-24T22:46:40.477Z,85.30
2017-09-24T22:49:08.630Z,85.30
2017-09-24T22:51:37.543Z,85.10
2017-09-24T22:54:05.714Z,85.10
2017-09-24T22:56:33.873Z,85.10
2017-09-24T22:59:02.061Z,85.20
2017-09-24T23:01:30.207Z,85.30
2017-09-24T23:03:59.126Z,85.50
2017-09-24T23:06:27.299Z,85.40
2017-09-24T23:08:55.456Z,85.50
2017-09-24T23:11:23.636Z,85.90
2017-09-24T23:13:51.778Z,85.30
2017-09-24T23:16:19.958Z,85.10
2017-09-24T23:18:48.091Z,85.10
2017-09-24T23:21:16.229Z,85.00
2017-09-24T23:23:44.391Z,85.20
2017-09-24T23:26:12.547Z,85.10
2017-09-24T23:28:41.590Z,85.00
2017-09-24T23:31:09.746Z,85.00
2017-09-24T23:33:38.489Z,85.00
2017-09-24T23:36:07.425Z,85.00
2017-09-24T23:38:35.579Z,85.00
2017-09-24T23:41:03.751Z,85.70
2017-09-24T23:43:31.911Z,85.10
2017-09-24T23:46:00.073Z,85.00
2017-09-24T23:48:28.276Z,85.10
2017-09-24T23:50:56.408Z,85.00
2017-09-24T23:53:25.533Z,85.10
2017-09-24T23:55:53.963Z,85.10
2017-09-24T23:58:22.126Z,85.80
